sensor_id;sensor_type;location;lat;lon;timestamp;P1;durP1;ratioP1;P2;durP2;ratioP2
73154;SDS011;66341;52.418;7.382;2023-04-29T06:23:40;2.62;;;2.61;;
73154;SDS011;66341;52.418;7.382;2023-04-29T06:54:53;2.91;;;2.91;;
73154;SDS011;66341;52.418;7.382;2023-04-29T07:00:15;2.50;;;2.50;;
73154;SDS011;66341;52.418;7.382;2023-04-29T08:57:32;3.21;;;3.21;;
73154;SDS011;66341;52.418;7.382;2023-04-29T09:08:29;2.00;;;2.00;;
73154;SDS011;66341;52.418;7.382;2023-04-29T10:01:32;1.88;;;1.88;;
73154;SDS011;66341;52.418;7.382;2023-04-29T10:06:39;1.78;;;1.78;;
73154;SDS011;66341;52.418;7.382;2023-04-29T16:48:00;1.04;;;1.04;;
73154;SDS011;66341;52.418;7.382;2023-04-29T16:50:28;1.09;;;1.09;;
73154;SDS011;66341;52.418;7.382;2023-04-29T16:52:54;1.07;;;1.07;;
73154;SDS011;66341;52.418;7.382;2023-04-29T16:55:26;0.98;;;0.98;;
73154;SDS011;66341;52.418;7.382;2023-04-29T16:57:56;0.85;;;0.85;;
73154;SDS011;66341;52.418;7.382;2023-04-29T17:03:04;0.95;;;0.95;;
73154;SDS011;66341;52.418;7.382;2023-04-29T17:05:31;0.98;;;0.98;;
73154;SDS011;66341;52.418;7.382;2023-04-29T17:10:36;1.05;;;1.05;;
73154;SDS011;66341;52.418;7.382;2023-04-29T17:13:02;1.03;;;1.03;;
73154;SDS011;66341;52.418;7.382;2023-04-29T17:15:30;0.98;;;0.98;;
73154;SDS011;66341;52.418;7.382;2023-04-29T17:18:04;0.79;;;0.79;;
73154;SDS011;66341;52.418;7.382;2023-04-29T17:20:29;0.98;;;0.98;;
73154;SDS011;66341;52.418;7.382;2023-04-29T17:22:55;1.05;;;1.05;;
73154;SDS011;66341;52.418;7.382;2023-04-29T17:25:21;1.03;;;1.03;;
73154;SDS011;66341;52.418;7.382;2023-04-29T17:27:47;0.97;;;0.97;;
73154;SDS011;66341;52.418;7.382;2023-04-29T17:30:12;1.00;;;1.00;;
73154;SDS011;66341;52.418;7.382;2023-04-29T17:32:38;1.09;;;1.09;;
73154;SDS011;66341;52.418;7.382;2023-04-29T17:35:04;1.07;;;1.07;;
73154;SDS011;66341;52.418;7.382;2023-04-29T17:37:31;0.99;;;0.99;;
73154;SDS011;66341;52.418;7.382;2023-04-29T17:39:56;0.89;;;0.89;;
73154;SDS011;66341;52.418;7.382;2023-04-29T17:42:22;1.04;;;1.04;;
73154;SDS011;66341;52.418;7.382;2023-04-29T17:44:48;0.93;;;0.93;;
73154;SDS011;66341;52.418;7.382;2023-04-29T17:47:14;0.97;;;0.97;;
73154;SDS011;66341;52.418;7.382;2023-04-29T17:49:44;0.93;;;0.93;;
73154;SDS011;66341;52.418;7.382;2023-04-29T17:52:09;1.01;;;1.01;;
73154;SDS011;66341;52.418;7.382;2023-04-29T17:54:38;1.03;;;1.03;;
73154;SDS011;66341;52.418;7.382;2023-04-29T17:57:04;0.90;;;0.90;;
73154;SDS011;66341;52.418;7.382;2023-04-29T17:59:33;1.03;;;1.03;;
73154;SDS011;66341;52.418;7.382;2023-04-29T18:01:58;1.08;;;1.08;;
73154;SDS011;66341;52.418;7.382;2023-04-29T18:04:24;1.01;;;1.01;;
73154;SDS011;66341;52.418;7.382;2023-04-29T18:06:50;0.98;;;0.98;;
73154;SDS011;66341;52.418;7.382;2023-04-29T18:09:18;0.97;;;0.97;;
73154;SDS011;66341;52.418;7.382;2023-04-29T18:11:44;0.98;;;0.98;;
73154;SDS011;66341;52.418;7.382;2023-04-29T18:14:10;0.99;;;0.99;;
73154;SDS011;66341;52.418;7.382;2023-04-29T18:16:35;1.03;;;1.03;;
73154;SDS011;66341;52.418;7.382;2023-04-29T18:19:01;0.95;;;0.95;;
73154;SDS011;66341;52.418;7.382;2023-04-29T18:21:27;0.97;;;0.97;;
73154;SDS011;66341;52.418;7.382;2023-04-29T18:23:53;0.97;;;0.97;;
73154;SDS011;66341;52.418;7.382;2023-04-29T18:26:19;0.99;;;0.99;;
73154;SDS011;66341;52.418;7.382;2023-04-29T18:28:45;1.08;;;1.08;;
73154;SDS011;66341;52.418;7.382;2023-04-29T18:31:15;0.95;;;0.95;;
73154;SDS011;66341;52.418;7.382;2023-04-29T18:33:41;0.87;;;0.87;;
73154;SDS011;66341;52.418;7.382;2023-04-29T18:36:07;0.92;;;0.92;;
73154;SDS011;66341;52.418;7.382;2023-04-29T18:38:35;1.11;;;1.11;;
73154;SDS011;66341;52.418;7.382;2023-04-29T18:41:05;1.15;;;1.15;;
73154;SDS011;66341;52.418;7.382;2023-04-29T18:43:33;0.93;;;0.93;;
73154;SDS011;66341;52.418;7.382;2023-04-29T18:45:59;0.98;;;0.98;;
73154;SDS011;66341;52.418;7.382;2023-04-29T18:48:25;0.99;;;0.99;;
73154;SDS011;66341;52.418;7.382;2023-04-29T18:50:55;1.01;;;1.01;;
73154;SDS011;66341;52.418;7.382;2023-04-29T18:53:28;1.06;;;1.06;;
73154;SDS011;66341;52.418;7.382;2023-04-29T18:55:54;1.01;;;1.01;;
73154;SDS011;66341;52.418;7.382;2023-04-29T18:58:20;1.00;;;1.00;;
73154;SDS011;66341;52.418;7.382;2023-04-29T19:00:51;0.96;;;0.96;;
73154;SDS011;66341;52.418;7.382;2023-04-29T19:03:29;0.97;;;0.97;;
73154;SDS011;66341;52.418;7.382;2023-04-29T19:05:58;0.90;;;0.90;;
73154;SDS011;66341;52.418;7.382;2023-04-29T19:08:31;1.02;;;1.02;;
73154;SDS011;66341;52.418;7.382;2023-04-29T19:11:00;0.96;;;0.96;;
73154;SDS011;66341;52.418;7.382;2023-04-29T19:13:26;1.07;;;1.07;;
73154;SDS011;66341;52.418;7.382;2023-04-29T19:15:52;1.00;;;1.00;;
73154;SDS011;66341;52.418;7.382;2023-04-29T19:18:19;0.91;;;0.91;;
73154;SDS011;66341;52.418;7.382;2023-04-29T19:20:50;0.92;;;0.92;;
73154;SDS011;66341;52.418;7.382;2023-04-29T19:23:18;0.99;;;0.99;;
73154;SDS011;66341;52.418;7.382;2023-04-29T19:25:46;0.99;;;0.99;;
73154;SDS011;66341;52.418;7.382;2023-04-29T19:28:12;1.01;;;1.01;;
73154;SDS011;66341;52.418;7.382;2023-04-29T19:30:38;1.04;;;1.04;;
73154;SDS011;66341;52.418;7.382;2023-04-29T19:33:03;0.93;;;0.93;;
73154;SDS011;66341;52.418;7.382;2023-04-29T19:35:31;1.05;;;1.05;;
73154;SDS011;66341;52.418;7.382;2023-04-29T19:37:57;0.91;;;0.91;;
73154;SDS011;66341;52.418;7.382;2023-04-29T19:40:22;0.90;;;0.90;;
73154;SDS011;66341;52.418;7.382;2023-04-29T19:42:48;0.93;;;0.93;;
73154;SDS011;66341;52.418;7.382;2023-04-29T19:45:14;0.93;;;0.93;;
73154;SDS011;66341;52.418;7.382;2023-04-29T19:47:39;0.90;;;0.90;;
73154;SDS011;66341;52.418;7.382;2023-04-29T19:50:08;0.92;;;0.92;;
73154;SDS011;66341;52.418;7.382;2023-04-29T19:52:37;0.94;;;0.94;;
73154;SDS011;66341;52.418;7.382;2023-04-29T19:55:02;0.98;;;0.98;;
73154;SDS011;66341;52.418;7.382;2023-04-29T19:57:29;0.79;;;0.79;;
73154;SDS011;66341;52.418;7.382;2023-04-29T19:59:54;0.89;;;0.89;;
73154;SDS011;66341;52.418;7.382;2023-04-29T20:02:26;1.03;;;1.03;;
73154;SDS011;66341;52.418;7.382;2023-04-29T20:04:59;1.04;;;1.04;;
73154;SDS011;66341;52.418;7.382;2023-04-29T20:07:29;0.94;;;0.94;;
73154;SDS011;66341;52.418;7.382;2023-04-29T20:10:01;0.99;;;0.99;;
73154;SDS011;66341;52.418;7.382;2023-04-29T20:12:33;0.82;;;0.82;;
73154;SDS011;66341;52.418;7.382;2023-04-29T20:15:03;1.00;;;1.00;;
73154;SDS011;66341;52.418;7.382;2023-04-29T20:17:34;0.89;;;0.89;;
73154;SDS011;66341;52.418;7.382;2023-04-29T20:20:04;1.05;;;1.05;;
73154;SDS011;66341;52.418;7.382;2023-04-29T20:22:36;0.87;;;0.87;;
73154;SDS011;66341;52.418;7.382;2023-04-29T20:25:03;0.76;;;0.76;;
73154;SDS011;66341;52.418;7.382;2023-04-29T20:27:37;0.97;;;0.97;;
73154;SDS011;66341;52.418;7.382;2023-04-29T20:30:03;0.82;;;0.82;;
73154;SDS011;66341;52.418;7.382;2023-04-29T20:32:34;0.95;;;0.95;;
73154;SDS011;66341;52.418;7.382;2023-04-29T20:35:06;0.83;;;0.83;;
73154;SDS011;66341;52.418;7.382;2023-04-29T20:37:43;0.82;;;0.82;;
73154;SDS011;66341;52.418;7.382;2023-04-29T21:37:53;0.96;;;0.96;;
73154;SDS011;66341;52.418;7.382;2023-04-29T21:43:29;0.83;;;0.83;;
73154;SDS011;66341;52.418;7.382;2023-04-29T21:46:01;0.91;;;0.91;;
73154;SDS011;66341;52.418;7.382;2023-04-29T21:53:56;0.81;;;0.81;;
73154;SDS011;66341;52.418;7.382;2023-04-29T22:04:20;0.82;;;0.82;;
73154;SDS011;66341;52.418;7.382;2023-04-29T22:06:53;0.99;;;0.99;;
73154;SDS011;66341;52.418;7.382;2023-04-29T22:09:25;0.84;;;0.84;;
73154;SDS011;66341;52.418;7.382;2023-04-29T22:11:52;0.82;;;0.82;;
73154;SDS011;66341;52.418;7.382;2023-04-29T23:00:56;0.89;;;0.89;;
73154;SDS011;66341;52.418;7.382;2023-04-29T23:03:27;0.95;;;0.95;;
73154;SDS011;66341;52.418;7.382;2023-04-29T23:06:00;0.96;;;0.96;;
73154;SDS011;66341;52.418;7.382;2023-04-29T23:08:29;0.98;;;0.98;;
73154;SDS011;66341;52.418;7.382;2023-04-29T23:10:55;0.96;;;0.96;;
73154;SDS011;66341;52.418;7.382;2023-04-29T23:13:26;0.76;;;0.76;;
73154;SDS011;66341;52.418;7.382;2023-04-29T23:15:56;0.83;;;0.83;;
